Portada
METAR-TAF:

METAR-TAF

Aeroports :

Harbin, Xina

latitud: 45-45N, longitud: 126-46E, altitud: 143 m

Observació

L'informe es va fer fa 18 minuts, a les 14:00 UTC
Vent 8 kt del Nord
Temperatura 1°C
Humitat 86%
Pressió 1018 hPa
Visibilitat 10 km o més
Cel ennuvolat a una alçada de 2300 ft
pluja

METAR: ZYHB 071400Z 35004MPS 9999 -RA BKN023 01/M01 Q1018 NOSIG

Hora: 22:18 (14:18 UTC)

Pronòstic

L'informe es va fer fa 5 hores i 17 minuts, a les 09:01 UTC
Pronòstic vàlid del 07 a les 12 UTC al 08 a les 12 UTC
Vent 10 kt del Nord
Visibilitat: 2000 m
Cel ennuvolat a una alçada de 3000 ft
pluja, neu
Evolucionant progressivament
l' 08 a les 00 UTC al 08 a les 01 UTC
Visibilitat: 6000 m

TAF: ZYHB 070901Z 0712/0812 36005MPS 2000 -RASN BKN030 TX08/0806Z TNM04/0721Z BECMG 0800/0801 6000 NSW

Observacions i pronòstics meteorològics de més de 4000 aeroports (METAR i TAF).

Les estacions disponibles són els punts grocs i vermells al mapa.

Posi el ratolí al punt desitjat per veure el nom de l'estació.

Feu clic per veure les observacions i els pronòstics meteorològics.

Per canviar el mapa: feu clic els botons verds amb una creu de color negre per apropar; al botó verd amb un guió per allunyar la imatge; o en les fletxes verdes per a mapes adjacents.


METAR-TAF: